עמוד ראשי
METAR-TAF:

METAR-TAF

שדות תעופה :

Luganville, Espiritu Santo, ונואטו

קו רוחב: 15-31S, קו אורך: 167-13E, גובה: 41מטר

תצפית מזג אוויר נוכחית

הדו"ח נערך לפני 1 שעות ו 12דקות, בשעה 11:00 UTC
רוח 1קשר מכיוון מערב
טמפרטורת 23 צלסיוס
לחות 94%
לחץ 1012 hPa

METAR: NVSS 151100Z AUTO 27001KT //// // NCD 23/22 Q1012

זמן: 23:12 (12:12 UTC)

תחזית

הדו"ח נערך לפני 1 שעות ו 12דקות, בשעה 11:00 UTC
תחזית בתוקף מ 15 ב 12 UTC עד 16 ב 12 UTC
רוח 2קשר עם כיוונים משתנים
ראות 10 קילומטר או יותר
עננים פזורים בגובה 2000רגל
מעונן בגובה 11000רגל
הסתברות 40%
בין IN ו TEUTC
ראות: 9000מטר
עננים בינוניים בגובה 1800רגל
ממטרי גשם קלים,

TAF: NVSS 151100Z 1512/1612 VRB02KT 9999 SCT020 OVC110 PROB40 INTER 1512/1518 9000 -SHRA BKN018

תצפיות ותחזיות מזג אוויר לגבי יותר מ- 4,000 שדות תעופה ברחבי העולם. דוחות METAR ו- TAF.

התחנות הזמינות מסומנות בנקודות צהובות ואדומות על גבי המפה.

העבר את העכבר לנקודה הצבעונית על מנת לראות את שם התחנה.

לאחר מכן, לחץ כדי לראות את תוכן ואת תחזיות מזג האוויר.

כדי לשנות את המפה: לחץ על הכפתורים הירוקים עם הפלוס השחור כדי להתקרב; על הכפתור הירוק עם המקף כדי להתרחק; או בחיצים הירוקים למפות סמוכות.


METAR-TAF: